Time;durP1;ratioP1;P1;durP2;ratioP2;P2;SDS_P1;SDS_P2;PMS_P1;PMS_P2;Temp;Humidity;BMP_temperature;BMP_pressure;BME280_temperature;BME280_humidity;BME280_pressure;Samples;Min_cycle;Max_cycle;Signal;HPM_P1;HPM_P2
2022/04/07 00:01:52;;;;;;;3.65;2.67;;;;;;;11.23;46.42;92557.72;5069825;28;20525;-52
2022/04/07 00:04:18;;;;;;;5.45;2.83;;;;;;;11.13;46.59;92559.66;5075408;28;20028;-54
2022/04/07 00:06:43;;;;;;;2.70;2.20;;;;;;;11.10;46.56;92555.31;5079428;28;20604;-51
2022/04/07 00:09:08;;;;;;;2.90;2.40;;;;;;;11.13;46.75;92545.84;5079609;28;20016;-52
2022/04/07 00:11:34;;;;;;;3.05;2.50;;;;;;;11.11;46.97;92545.72;5080727;28;20028;-55
2022/04/07 00:13:59;;;;;;;3.42;2.35;;;;;;;11.02;46.92;92538.09;5077108;28;20551;-59
2022/04/07 00:16:25;;;;;;;2.50;2.30;;;;;;;10.92;47.25;92537.31;5077369;28;20027;-48
2022/04/07 00:18:50;;;;;;;4.53;2.58;;;;;;;10.87;47.70;92538.31;5085242;28;20039;-46
2022/04/07 00:21:24;;;;;;;3.20;2.50;;;;;;;10.93;47.54;92540.81;5088605;28;20024;-50
2022/04/07 00:23:53;;;;;;;4.40;2.83;;;;;;;10.91;47.59;92527.59;5090190;28;20024;-47
2022/04/07 00:26:19;;;;;;;4.00;2.47;;;;;;;10.93;47.36;92536.03;5080968;28;20043;-49
2022/04/07 00:28:44;;;;;;;2.92;2.60;;;;;;;10.92;47.43;92534.56;5089449;28;20036;-60
2022/04/07 00:31:11;;;;;;;4.75;2.28;;;;;;;10.88;47.23;92530.75;5089770;28;20077;-60
2022/04/07 00:33:37;;;;;;;4.00;2.88;;;;;;;10.89;47.58;92518.41;5090268;28;20059;-60
2022/04/07 00:36:04;;;;;;;3.50;2.55;;;;;;;10.86;47.55;92520.28;5078811;28;20064;-60
2022/04/07 00:38:30;;;;;;;2.78;2.50;;;;;;;10.86;47.74;92522.31;5069699;28;20481;-60
2022/04/07 00:40:55;;;;;;;4.18;2.60;;;;;;;10.77;48.22;92511.94;5069771;28;20036;-60
2022/04/07 00:43:31;;;;;;;4.75;2.80;;;;;;;10.76;47.96;92516.75;5078842;28;20024;-53
2022/04/07 00:45:58;;;;;;;3.63;2.42;;;;;;;10.76;48.33;92514.00;5089820;28;20032;-49
2022/04/07 00:48:25;;;;;;;4.45;2.97;;;;;;;10.70;48.26;92510.72;5089923;28;20123;-48
2022/04/07 00:50:50;;;;;;;2.90;2.65;;;;;;;10.72;48.77;92493.63;5089659;28;20032;-50
2022/04/07 00:53:16;;;;;;;6.18;2.50;;;;;;;10.78;47.73;92492.06;5091454;28;20081;-50
2022/04/07 00:55:42;;;;;;;5.70;2.60;;;;;;;10.47;48.69;92475.16;5093694;28;20027;-49
2022/04/07 00:58:08;;;;;;;4.85;2.75;;;;;;;10.65;48.41;92501.41;5093310;28;20661;-49
2022/04/07 01:00:34;;;;;;;3.47;2.80;;;;;;;10.66;47.94;92491.09;5093190;28;20055;-52
2022/04/07 01:03:00;;;;;;;7.57;2.72;;;;;;;10.61;48.52;92487.28;5093541;28;20038;-50
2022/04/07 01:05:26;;;;;;;6.32;3.15;;;;;;;10.58;48.31;92482.19;5093172;28;20028;-49
2022/04/07 01:07:51;;;;;;;2.95;2.53;;;;;;;10.53;48.40;92488.69;5093444;28;20016;-48
2022/04/07 01:10:19;;;;;;;2.65;2.35;;;;;;;10.42;49.00;92478.91;5093062;28;20023;-49
2022/04/07 01:12:44;;;;;;;3.30;2.15;;;;;;;10.40;48.81;92470.47;5093293;28;20080;-50
2022/04/07 01:15:10;;;;;;;3.25;2.67;;;;;;;10.45;48.94;92475.00;5093090;28;20028;-49
2022/04/07 01:17:36;;;;;;;4.63;2.63;;;;;;;10.46;49.09;92459.91;5092950;28;20028;-50
2022/04/07 01:20:04;;;;;;;2.35;2.15;;;;;;;10.53;48.89;92459.06;5093033;28;20020;-48
2022/04/07 01:22:31;;;;;;;4.78;3.08;;;;;;;10.55;48.77;92461.25;5093206;28;20089;-47
2022/04/07 01:24:56;;;;;;;4.13;2.70;;;;;;;10.51;49.05;92445.13;5091950;28;20043;-48
2022/04/07 01:27:24;;;;;;;4.00;3.10;;;;;;;10.56;48.77;92438.63;5092924;28;20497;-46
2022/04/07 01:29:51;;;;;;;7.82;2.72;;;;;;;10.49;48.90;92455.28;5093065;28;20024;-50
2022/04/07 01:32:26;;;;;;;3.50;2.50;;;;;;;10.45;49.16;92438.41;5091825;28;20047;-47
2022/04/07 01:34:51;;;;;;;3.83;2.63;;;;;;;10.36;49.34;92434.28;5072451;28;20031;-46
2022/04/07 01:37:18;;;;;;;3.95;2.78;;;;;;;10.36;49.66;92425.28;5072458;28;20103;-48
2022/04/07 01:39:44;;;;;;;2.40;2.20;;;;;;;10.11;49.72;92397.09;5072687;28;20044;-49
2022/04/07 01:42:12;;;;;;;4.13;2.65;;;;;;;10.27;49.56;92412.88;5072669;28;20074;-48
2022/04/07 01:44:47;;;;;;;4.72;3.13;;;;;;;10.24;50.27;92418.81;5091282;28;20028;-48
2022/04/07 01:47:14;;;;;;;5.55;3.25;;;;;;;10.22;50.77;92415.91;5091283;28;20489;-47
2022/04/07 01:49:44;;;;;;;3.33;3.03;;;;;;;10.24;50.56;92411.28;5091395;28;20024;-48
2022/04/07 01:52:12;;;;;;;2.83;2.55;;;;;;;10.12;50.15;92393.78;5092651;28;20031;-49
2022/04/07 01:54:42;;;;;;;4.57;2.85;;;;;;;10.19;50.18;92378.41;5092603;28;20429;-47
2022/04/07 01:57:07;;;;;;;3.83;2.78;;;;;;;10.20;50.38;92375.09;5092449;28;20111;-48
2022/04/07 01:59:34;;;;;;;4.18;2.70;;;;;;;10.16;50.50;92360.25;5090541;28;20638;-51
2022/04/07 02:02:00;;;;;;;4.80;3.28;;;;;;;10.23;49.96;92362.19;5092232;28;20069;-51
2022/04/07 02:04:25;;;;;;;4.63;2.92;;;;;;;10.32;49.97;92370.53;5091888;28;20066;-51
2022/04/07 02:06:50;;;;;;;2.80;2.50;;;;;;;10.27;50.47;92373.53;5092313;28;20032;-52
2022/04/07 02:09:16;;;;;;;5.18;3.25;;;;;;;10.29;50.13;92387.47;5092401;28;20032;-50
2022/04/07 02:11:44;;;;;;;4.22;3.55;;;;;;;10.21;51.47;92378.56;5092272;28;20398;-52
2022/04/07 02:14:10;;;;;;;4.78;3.28;;;;;;;10.28;50.67;92363.97;5091935;28;20059;-52
2022/04/07 02:16:35;;;;;;;3.72;2.97;;;;;;;10.29;51.28;92360.63;5091877;28;20016;-52
2022/04/07 02:19:01;;;;;;;3.28;2.58;;;;;;;9.99;51.43;92349.22;5091868;28;20024;-50
2022/04/07 02:21:27;;;;;;;4.28;2.95;;;;;;;10.07;50.79;92338.84;5092088;28;20027;-58
2022/04/07 02:23:52;;;;;;;3.65;2.90;;;;;;;9.94;51.90;92335.13;5091682;28;20016;-51
2022/04/07 02:26:18;;;;;;;3.40;2.50;;;;;;;9.98;50.94;92323.72;5092299;28;20067;-52
2022/04/07 02:28:44;;;;;;;3.47;3.05;;;;;;;9.99;51.69;92310.63;5091532;28;20042;-54
2022/04/07 02:31:11;;;;;;;4.70;2.90;;;;;;;9.99;51.25;92322.41;5082129;28;20020;-54
2022/04/07 02:33:37;;;;;;;3.10;2.80;;;;;;;9.99;51.54;92340.97;5091946;28;20031;-51
2022/04/07 02:36:07;;;;;;;3.33;3.00;;;;;;;9.88;51.54;92342.22;5091600;28;20056;-54
2022/04/07 02:38:34;;;;;;;3.92;2.60;;;;;;;9.89;51.22;92341.66;5091357;28;20496;-51
2022/04/07 02:40:59;;;;;;;5.65;3.25;;;;;;;9.85;51.13;92324.78;5090713;28;20020;-49
2022/04/07 02:43:25;;;;;;;3.70;3.17;;;;;;;9.93;52.06;92332.97;5080785;28;20020;-51
2022/04/07 02:45:50;;;;;;;5.72;3.60;;;;;;;9.89;52.92;92316.84;5071144;28;20486;-52
2022/04/07 02:48:16;;;;;;;4.90;3.83;;;;;;;9.91;51.83;92308.72;5070980;28;20078;-49
2022/04/07 02:50:43;;;;;;;4.38;3.30;;;;;;;9.88;52.09;92317.41;5071094;28;20113;-50
2022/04/07 02:53:09;;;;;;;4.65;3.42;;;;;;;9.93;51.50;92311.63;5070869;28;20020;-50
2022/04/07 02:55:34;;;;;;;6.10;3.30;;;;;;;9.94;52.15;92298.56;5071028;28;20042;-53
2022/04/07 02:58:00;;;;;;;6.05;2.95;;;;;;;9.86;51.35;92297.94;5070587;28;20477;-51
2022/04/07 03:00:26;;;;;;;3.80;3.15;;;;;;;9.78;51.48;92309.09;5070632;28;20068;-50
2022/04/07 03:02:51;;;;;;;4.25;3.85;;;;;;;9.75;52.92;92315.00;5070692;28;20099;-50
2022/04/07 03:05:17;;;;;;;4.20;3.80;;;;;;;9.75;52.66;92312.25;5070633;28;20029;-50
2022/04/07 03:07:42;;;;;;;4.70;3.08;;;;;;;9.67;53.02;92311.63;5070567;28;20027;-53
2022/04/07 03:10:08;;;;;;;3.65;3.10;;;;;;;9.59;52.65;92300.69;5070542;28;20109;-52
2022/04/07 03:12:34;;;;;;;5.80;3.50;;;;;;;9.27;53.47;92291.91;5070740;28;20028;-52
2022/04/07 03:15:00;;;;;;;4.63;3.30;;;;;;;9.39;53.01;92312.13;5070442;28;20044;-51
2022/04/07 03:17:26;;;;;;;4.15;3.20;;;;;;;9.49;52.80;92310.91;5070639;28;20122;-52
2022/04/07 03:19:51;;;;;;;4.03;3.30;;;;;;;9.45;53.31;92315.38;5070480;28;20464;-52
2022/04/07 03:22:18;;;;;;;4.45;3.70;;;;;;;9.44;54.96;92316.69;5070749;28;20020;-55
2022/04/07 03:24:45;;;;;;;4.95;3.58;;;;;;;9.51;54.14;92310.31;5070602;28;20028;-55
2022/04/07 03:27:10;;;;;;;5.00;3.38;;;;;;;9.53;52.95;92313.28;5070300;28;20048;-55
2022/04/07 03:29:36;;;;;;;6.18;3.67;;;;;;;9.44;55.11;92322.91;5070208;28;20027;-47
2022/04/07 03:32:02;;;;;;;5.90;3.60;;;;;;;9.51;53.78;92329.63;5070624;28;20031;-49
2022/04/07 03:34:27;;;;;;;6.97;4.93;;;;;;;9.60;53.51;92332.44;5070579;28;20032;-48
2022/04/07 03:36:52;;;;;;;6.43;4.07;;;;;;;9.67;53.21;92314.38;5070162;28;20103;-47
2022/04/07 03:39:18;;;;;;;4.93;3.60;;;;;;;9.67;53.91;92286.81;5070242;28;20028;-47
2022/04/07 03:41:43;;;;;;;7.65;4.13;;;;;;;9.68;53.34;92263.47;5068964;28;20036;-58
2022/04/07 03:44:10;;;;;;;5.25;3.28;;;;;;;9.61;53.46;92254.00;5068876;28;20027;-59
2022/04/07 03:46:36;;;;;;;4.38;3.38;;;;;;;9.67;53.24;92242.72;5070327;28;20031;-55
2022/04/07 03:49:03;;;;;;;3.80;3.28;;;;;;;9.59;53.88;92231.81;5070149;28;20031;-56
2022/04/07 03:51:28;;;;;;;4.85;3.20;;;;;;;9.33;54.10;92232.50;5068896;28;20024;-53
2022/04/07 03:53:54;;;;;;;5.35;3.50;;;;;;;9.26;54.79;92222.31;5070429;28;20021;-55
2022/04/07 03:56:19;;;;;;;5.32;3.17;;;;;;;9.18;54.97;92222.41;5070442;28;20035;-51
2022/04/07 03:58:45;;;;;;;5.15;3.40;;;;;;;9.06;55.52;92224.19;5086729;28;20044;-52
2022/04/07 04:01:10;;;;;;;5.30;3.40;;;;;;;8.89;56.56;92235.22;5090615;28;20122;-52
2022/04/07 04:03:36;;;;;;;4.10;3.40;;;;;;;8.86;56.48;92236.34;5090159;28;20023;-56
2022/04/07 04:06:02;;;;;;;7.75;3.95;;;;;;;8.71;56.35;92233.03;5090210;28;20054;-53
2022/04/07 04:08:27;;;;;;;7.53;4.20;;;;;;;8.66;57.14;92214.75;5090391;28;20048;-55
2022/04/07 04:10:53;;;;;;;5.50;4.28;;;;;;;8.51;57.05;92203.91;5089939;28;20500;-53
2022/04/07 04:13:19;;;;;;;7.53;5.00;;;;;;;8.47;57.34;92192.56;5090038;28;20019;-57
2022/04/07 04:15:45;;;;;;;5.72;4.05;;;;;;;8.47;57.33;92190.53;5090250;28;20024;-54
2022/04/07 04:18:10;;;;;;;8.27;4.78;;;;;;;8.37;56.77;92157.47;5090420;28;20027;-51
2022/04/07 04:20:35;;;;;;;6.22;4.70;;;;;;;8.44;57.95;92194.44;5090191;28;20024;-48
2022/04/07 04:23:01;;;;;;;7.93;4.05;;;;;;;8.51;57.21;92181.91;5090365;28;20016;-49
2022/04/07 04:25:26;;;;;;;6.53;4.38;;;;;;;8.69;57.56;92192.31;5090228;28;20393;-49
2022/04/07 04:27:52;;;;;;;4.05;3.55;;;;;;;8.81;56.54;92190.56;5087707;28;20463;-50
2022/04/07 04:30:20;;;;;;;5.85;3.67;;;;;;;8.91;55.46;92185.84;5073933;28;20025;-49
2022/04/07 04:32:46;;;;;;;4.55;3.92;;;;;;;8.62;56.59;92186.91;5073579;28;20021;-50
2022/04/07 04:35:11;;;;;;;4.82;3.85;;;;;;;8.62;56.69;92184.88;5073897;28;20029;-47
2022/04/07 04:37:38;;;;;;;9.05;5.00;;;;;;;8.59;57.09;92179.78;5073827;28;20550;-50
2022/04/07 04:40:05;;;;;;;4.90;3.95;;;;;;;8.55;56.81;92174.69;5073613;28;20078;-50
2022/04/07 04:42:30;;;;;;;4.00;3.60;;;;;;;8.69;56.30;92184.06;5073722;28;20025;-51
2022/04/07 04:44:56;;;;;;;5.85;4.57;;;;;;;8.85;56.35;92192.88;5073641;28;20039;-50
2022/04/07 04:47:21;;;;;;;5.53;3.75;;;;;;;8.82;56.62;92183.75;5073311;28;20700;-49
2022/04/07 04:49:47;;;;;;;6.32;3.85;;;;;;;8.86;55.79;92181.31;5073471;28;20021;-48
2022/04/07 04:52:13;;;;;;;6.72;4.10;;;;;;;8.92;55.67;92176.28;5073565;28;20023;-48
2022/04/07 04:54:38;;;;;;;4.38;3.67;;;;;;;8.92;55.71;92179.03;5073143;28;20510;-48
2022/04/07 04:57:06;;;;;;;5.88;3.30;;;;;;;8.99;55.56;92178.22;5076292;28;20020;-49
2022/04/07 04:59:31;;;;;;;4.45;3.80;;;;;;;9.02;55.33;92184.59;5072457;28;20052;-48
2022/04/07 05:01:57;;;;;;;8.45;4.25;;;;;;;9.08;55.04;92191.31;5073093;28;20043;-48
2022/04/07 05:04:22;;;;;;;6.10;4.07;;;;;;;9.07;54.93;92200.88;5072927;28;20044;-48
2022/04/07 05:06:48;;;;;;;6.35;3.85;;;;;;;9.12;55.28;92190.91;5073211;28;20020;-48
2022/04/07 05:09:13;;;;;;;5.95;4.88;;;;;;;9.20;55.41;92194.31;5072919;28;20029;-49
2022/04/07 05:11:39;;;;;;;5.38;4.47;;;;;;;9.11;54.65;92183.94;5072862;28;20031;-48
2022/04/07 05:14:04;;;;;;;4.70;4.20;;;;;;;9.27;55.25;92173.47;5073001;28;20021;-47
2022/04/07 05:16:30;;;;;;;4.97;3.80;;;;;;;9.32;55.41;92178.72;5073122;28;20082;-52
2022/04/07 05:18:56;;;;;;;9.85;6.05;;;;;;;9.48;54.69;92182.72;5072412;28;20027;-54
2022/04/07 05:21:21;;;;;;;9.13;5.65;;;;;;;9.36;54.13;92172.78;5072554;28;20020;-52
2022/04/07 05:23:46;;;;;;;5.25;4.15;;;;;;;9.37;54.46;92166.72;5074759;28;20017;-55
2022/04/07 05:26:15;;;;;;;6.13;5.07;;;;;;;9.52;54.50;92180.28;5093116;28;20027;-48
2022/04/07 05:28:41;;;;;;;7.43;5.18;;;;;;;9.52;53.22;92154.75;5089931;28;20027;-48
2022/04/07 05:31:07;;;;;;;10.35;6.32;;;;;;;9.65;54.30;92182.66;5081394;28;20472;-49
2022/04/07 05:33:32;;;;;;;7.13;5.13;;;;;;;9.75;53.11;92183.44;5080809;28;20043;-49
2022/04/07 05:35:58;;;;;;;4.30;3.30;;;;;;;9.61;52.85;92168.59;5081691;28;20017;-47
2022/04/07 05:38:23;;;;;;;4.32;3.92;;;;;;;9.63;53.18;92165.25;5081333;28;20028;-57
2022/04/07 05:40:49;;;;;;;4.03;3.42;;;;;;;9.48;53.03;92162.72;5082986;28;20012;-54
2022/04/07 05:43:14;;;;;;;6.00;3.20;;;;;;;9.39;53.68;92147.59;5082289;28;20031;-56
2022/04/07 05:45:42;;;;;;;4.00;3.45;;;;;;;9.51;53.24;92156.03;5080719;28;20019;-55
2022/04/07 05:48:08;;;;;;;5.47;3.85;;;;;;;9.58;53.13;92152.44;5080655;28;20059;-51
2022/04/07 05:50:33;;;;;;;5.60;3.60;;;;;;;9.56;53.43;92146.78;5078216;28;20052;-52
2022/04/07 05:52:59;;;;;;;3.88;3.10;;;;;;;9.73;52.99;92141.19;5079809;28;20414;-51
2022/04/07 05:55:24;;;;;;;5.22;3.20;;;;;;;10.10;52.26;92153.66;5079629;28;20032;-52
2022/04/07 05:57:49;;;;;;;11.88;3.72;;;;;;;10.42;51.36;92147.06;5081143;28;20012;-50
2022/04/07 06:00:17;;;;;;;8.88;3.75;;;;;;;10.80;51.21;92151.88;5082720;28;20795;-52
2022/04/07 06:02:44;;;;;;;4.20;3.38;;;;;;;11.00;48.53;92145.75;5082363;28;20059;-49
2022/04/07 06:05:11;;;;;;;5.13;3.72;;;;;;;10.78;49.41;92155.22;5079207;28;20081;-49
2022/04/07 06:07:37;;;;;;;4.43;3.42;;;;;;;10.84;48.51;92130.09;5078912;28;20056;-53
2022/04/07 06:10:04;;;;;;;4.95;4.22;;;;;;;11.01;48.96;92149.97;5078966;28;20051;-52
2022/04/07 06:12:29;;;;;;;4.07;3.67;;;;;;;11.05;48.57;92144.75;5080222;28;20020;-50
2022/04/07 06:14:55;;;;;;;8.55;4.20;;;;;;;10.96;49.42;92148.22;5084241;28;20028;-46
2022/04/07 06:17:32;;;;;;;8.38;3.95;;;;;;;10.68;48.49;92146.94;5090134;28;20024;-50
2022/04/07 06:19:57;;;;;;;6.10;3.30;;;;;;;10.43;49.00;92162.31;5088465;28;20103;-50
2022/04/07 06:22:23;;;;;;;10.98;4.28;;;;;;;10.29;49.63;92161.25;5069275;28;20414;-51
2022/04/07 06:24:48;;;;;;;4.60;3.72;;;;;;;10.45;50.08;92145.91;5069295;28;20058;-50
2022/04/07 06:27:14;;;;;;;5.13;3.55;;;;;;;10.78;48.90;92143.47;5068985;28;20028;-48
2022/04/07 06:29:39;;;;;;;4.97;4.03;;;;;;;10.97;47.90;92141.41;5069004;28;20028;-49
2022/04/07 06:32:05;;;;;;;9.23;4.28;;;;;;;11.18;48.32;92129.75;5069080;28;20098;-52
2022/04/07 06:34:30;;;;;;;5.88;3.38;;;;;;;11.88;47.40;92114.56;5068032;28;20025;-50
2022/04/07 06:36:56;;;;;;;6.03;3.80;;;;;;;12.94;45.48;92113.28;5069218;28;20463;-53
2022/04/07 06:39:21;;;;;;;7.20;4.05;;;;;;;13.83;43.32;92107.00;5069076;28;20029;-49
2022/04/07 06:41:47;;;;;;;6.40;3.85;;;;;;;13.72;41.51;92111.22;5085097;28;20031;-54
2022/04/07 06:44:12;;;;;;;6.25;3.50;;;;;;;13.40;42.38;92106.47;5072866;28;20020;-48
2022/04/07 06:46:38;;;;;;;6.15;3.45;;;;;;;13.65;42.58;92112.91;5069377;28;20050;-49
2022/04/07 06:49:03;;;;;;;7.15;3.70;;;;;;;13.67;41.96;92115.78;5068952;28;20028;-50
2022/04/07 06:51:29;;;;;;;5.50;3.95;;;;;;;13.94;41.58;92109.06;5067977;28;20086;-53
2022/04/07 06:53:54;;;;;;;4.80;3.65;;;;;;;14.15;40.80;92100.59;5068646;28;20016;-55
2022/04/07 06:56:20;;;;;;;8.40;3.63;;;;;;;14.44;41.72;92096.13;5068523;28;20028;-52
2022/04/07 06:58:45;;;;;;;7.45;4.13;;;;;;;14.96;40.51;92081.00;5068181;28;20028;-50
2022/04/07 07:01:11;;;;;;;5.03;3.40;;;;;;;15.24;39.26;92095.75;5068659;28;20024;-48
2022/04/07 07:03:36;;;;;;;6.45;3.58;;;;;;;15.23;38.74;92085.94;5076422;28;20027;-58
2022/04/07 07:06:02;;;;;;;6.22;4.18;;;;;;;15.11;38.88;92091.56;5097958;28;20023;-50
2022/04/07 07:08:27;;;;;;;5.88;3.83;;;;;;;14.78;38.91;92097.38;5089092;28;20603;-51
2022/04/07 07:10:53;;;;;;;5.78;3.80;;;;;;;14.18;40.91;92099.41;5089008;28;20080;-54
2022/04/07 07:13:20;;;;;;;16.17;5.60;;;;;;;14.30;40.07;92095.31;5082064;28;20033;-53
2022/04/07 07:15:46;;;;;;;19.38;5.20;;;;;;;14.02;41.31;92081.78;5083807;28;20103;-53
2022/04/07 07:18:12;;;;;;;7.78;4.00;;;;;;;14.16;41.05;92108.31;5089204;28;20473;-53
2022/04/07 07:20:37;;;;;;;5.07;4.10;;;;;;;14.17;42.13;92125.69;5100603;28;20107;-52
2022/04/07 07:23:03;;;;;;;8.40;4.35;;;;;;;14.23;40.84;92118.44;5088417;28;20032;-52
2022/04/07 07:25:31;;;;;;;7.00;4.07;;;;;;;14.03;41.12;92124.88;5088403;28;20022;-52
2022/04/07 07:27:57;;;;;;;6.97;4.57;;;;;;;13.87;41.99;92119.06;5088187;28;20050;-49
2022/04/07 07:30:22;;;;;;;6.60;4.65;;;;;;;13.61;42.33;92123.00;5088480;28;20677;-51
2022/04/07 07:32:48;;;;;;;5.90;4.30;;;;;;;13.41;43.54;92121.75;5087108;28;20031;-52
2022/04/07 07:35:19;;;;;;;8.60;4.40;;;;;;;13.52;43.00;92126.59;5088511;28;20035;-49
2022/04/07 07:37:55;;;;;;;7.10;4.30;;;;;;;13.82;42.29;92136.09;5088785;28;20020;-49
2022/04/07 07:40:25;;;;;;;8.13;4.00;;;;;;;14.19;41.52;92117.50;5088360;28;20031;-49
2022/04/07 07:42:58;;;;;;;7.10;4.00;;;;;;;14.17;41.67;92123.66;5087705;28;20030;-46
2022/04/07 07:45:24;;;;;;;7.40;4.45;;;;;;;14.39;41.67;92116.66;5088153;28;20024;-47
2022/04/07 07:47:52;;;;;;;8.80;4.63;;;;;;;14.86;41.90;92094.31;5088063;28;20024;-46
2022/04/07 07:50:18;;;;;;;4.57;3.15;;;;;;;15.63;38.61;92105.59;5088027;28;20084;-48
2022/04/07 07:52:43;;;;;;;4.85;3.80;;;;;;;15.91;38.71;92095.25;5087738;28;20497;-52
2022/04/07 07:55:09;;;;;;;4.88;3.60;;;;;;;16.47;38.24;92097.44;5088151;28;20028;-47
2022/04/07 07:57:34;;;;;;;6.63;4.00;;;;;;;17.53;35.24;92092.88;5087774;28;20566;-44
2022/04/07 08:00:01;;;;;;;5.28;4.28;;;;;;;18.26;33.98;92094.84;5087979;28;20040;-49
2022/04/07 08:02:26;;;;;;;7.78;5.80;;;;;;;17.67;35.21;92099.84;5087648;28;20039;-48
2022/04/07 08:04:52;;;;;;;8.82;4.80;;;;;;;17.11;35.79;92088.78;5088099;28;20024;-52
2022/04/07 08:07:18;;;;;;;8.20;4.78;;;;;;;17.36;35.94;92088.59;5087794;28;20032;-54
2022/04/07 08:09:43;;;;;;;8.55;5.15;;;;;;;17.87;34.64;92075.66;5087619;28;20107;-53
2022/04/07 08:12:09;;;;;;;5.60;4.82;;;;;;;18.19;34.73;92079.19;5086195;28;20696;-50
2022/04/07 08:14:35;;;;;;;7.85;5.00;;;;;;;18.53;33.54;92068.78;5066523;28;20039;-54
2022/04/07 08:17:01;;;;;;;5.75;3.60;;;;;;;18.63;32.27;92077.59;5066461;28;20020;-48
2022/04/07 08:19:26;;;;;;;6.15;3.83;;;;;;;19.14;31.71;92069.97;5066160;28;20108;-52
2022/04/07 08:21:52;;;;;;;4.53;3.30;;;;;;;19.29;31.09;92071.97;5066983;28;20016;-53
2022/04/07 08:24:19;;;;;;;6.70;3.80;;;;;;;19.51;31.52;92064.44;5067088;28;20421;-51
2022/04/07 08:26:45;;;;;;;6.22;4.18;;;;;;;18.45;32.10;92057.28;5065954;28;20045;-51
2022/04/07 08:29:11;;;;;;;7.85;4.53;;;;;;;17.87;33.71;92050.53;5066543;28;20025;-53
2022/04/07 08:31:36;;;;;;;4.93;3.80;;;;;;;17.49;33.22;92053.59;5066466;28;20480;-53
2022/04/07 08:34:02;;;;;;;7.82;3.95;;;;;;;16.56;35.12;92021.31;5065069;28;20032;-46
2022/04/07 08:36:27;;;;;;;5.97;4.00;;;;;;;15.79;36.97;92050.78;5087260;28;20131;-52
2022/04/07 08:38:53;;;;;;;11.02;4.10;;;;;;;15.66;37.59;92050.75;5087287;28;20091;-45
2022/04/07 08:41:19;;;;;;;6.88;4.30;;;;;;;15.37;38.05;92039.44;5086562;28;20020;-45
2022/04/07 08:43:44;;;;;;;12.95;4.45;;;;;;;15.31;38.41;92031.50;5086521;28;20043;-45
2022/04/07 08:46:14;;;;;;;6.03;3.67;;;;;;;15.24;38.52;92034.56;5069090;28;20043;-46
2022/04/07 08:48:42;;;;;;;7.57;4.45;;;;;;;14.70;39.03;92032.28;5086330;28;20046;-47
2022/04/07 08:51:08;;;;;;;6.95;4.55;;;;;;;14.25;41.00;92024.19;5084730;28;20033;-52
2022/04/07 08:53:34;;;;;;;5.18;3.80;;;;;;;14.16;40.59;92010.47;5067689;28;20039;-54
2022/04/07 08:56:04;;;;;;;7.38;4.32;;;;;;;13.55;42.77;91984.72;5068511;28;20025;-47
2022/04/07 08:58:30;;;;;;;7.47;3.75;;;;;;;13.73;42.08;92009.31;5079755;28;20047;-52
2022/04/07 09:00:56;;;;;;;6.32;4.30;;;;;;;13.86;41.81;92006.63;5088628;28;20043;-45
2022/04/07 09:03:21;;;;;;;5.22;4.05;;;;;;;14.10;41.94;91999.72;5077251;28;20516;-43
2022/04/07 09:06:00;;;;;;;10.13;4.15;;;;;;;14.23;40.57;91981.69;5089112;28;20020;-42
2022/04/07 09:08:33;;;;;;;;;;;;;;;14.19;41.29;91998.84;5089562;28;20089;-45
2022/04/07 09:11:00;;;;;;;4.88;4.05;;;;;;;13.97;41.50;92007.97;5068502;28;19956;-43
2022/04/07 09:13:31;;;;;;;6.03;4.15;;;;;;;14.13;41.23;91995.00;5084751;28;20533;-44
2022/04/07 09:15:58;;;;;;;7.30;4.15;;;;;;;14.23;40.41;91976.88;5072515;28;20082;-43
2022/04/07 09:18:24;;;;;;;15.82;5.90;;;;;;;14.26;41.68;91977.72;5072454;28;20036;-43
2022/04/07 09:20:50;;;;;;;8.85;3.75;;;;;;;14.00;40.75;91990.81;5092003;28;20031;-45
2022/04/07 09:23:17;;;;;;;6.13;4.10;;;;;;;13.91;41.30;91982.63;5075981;28;20051;-44
2022/04/07 09:25:49;;;;;;;7.18;4.15;;;;;;;13.65;41.61;91977.00;5070645;28;20036;-45
2022/04/07 09:28:35;;;;;;;11.02;4.70;;;;;;;13.65;42.46;91992.91;5070059;28;20107;-42
2022/04/07 09:31:00;;;;;;;7.38;4.70;;;;;;;13.68;42.45;91975.06;5069853;28;20040;-44
2022/04/07 09:33:27;;;;;;;9.07;5.80;;;;;;;13.82;42.06;91984.19;5070390;28;20033;-44
2022/04/07 09:36:10;;;;;;;7.00;4.38;;;;;;;13.80;41.88;91963.94;5083235;28;20052;-44
2022/04/07 09:38:37;;;;;;;6.57;3.92;;;;;;;13.54;42.19;91966.63;5090462;28;20531;-43
2022/04/07 09:41:12;;;;;;;10.07;4.25;;;;;;;13.41;42.53;91952.66;5090459;28;20083;-45
2022/04/07 09:43:58;;;;;;;7.65;4.10;;;;;;;13.78;43.14;91974.91;5089955;28;20084;-46
2022/04/07 09:46:25;;;;;;;9.15;5.03;;;;;;;13.71;42.64;91962.75;5090302;28;20078;-44
2022/04/07 09:49:07;;;;;;;7.60;4.35;;;;;;;13.68;42.66;91961.94;5090254;28;20504;-44
2022/04/07 09:51:46;;;;;;;6.18;3.88;;;;;;;13.51;43.79;91965.06;5089997;28;20118;-45
2022/04/07 09:54:16;;;;;;;6.53;4.07;;;;;;;13.54;43.81;91963.13;5090162;28;20039;-45
2022/04/07 09:56:42;;;;;;;6.90;4.05;;;;;;;13.50;43.10;91946.25;5090178;28;20085;-43
2022/04/07 09:59:09;;;;;;;5.10;3.80;;;;;;;13.61;45.00;91967.72;5089228;28;20063;-45
2022/04/07 10:01:38;;;;;;;4.28;3.47;;;;;;;13.60;44.60;91957.94;5090332;28;20020;-44
2022/04/07 10:04:05;;;;;;;9.10;5.78;;;;;;;13.61;44.86;91959.41;5089259;28;20078;-44
2022/04/07 10:06:34;;;;;;;7.53;4.85;;;;;;;13.60;44.93;91957.94;5075105;28;20036;-43
2022/04/07 10:09:02;;;;;;;9.13;5.95;;;;;;;13.50;45.55;91960.84;5097948;28;20634;-45
2022/04/07 10:11:31;;;;;;;8.52;4.00;;;;;;;13.56;44.57;91960.47;5109910;28;20048;-46
2022/04/07 10:13:57;;;;;;;4.50;3.35;;;;;;;13.44;44.25;91962.53;5110247;28;20027;-46
2022/04/07 10:16:23;;;;;;;7.38;4.22;;;;;;;13.17;46.40;91954.69;5110228;27;20030;-46
2022/04/07 10:18:55;;;;;;;8.73;4.28;;;;;;;13.20;49.13;91964.59;5109748;28;20436;-48
2022/04/07 10:21:53;;;;;;;7.95;5.28;;;;;;;13.10;49.38;91963.25;5109779;28;20022;-43
2022/04/07 10:24:34;;;;;;;7.70;5.90;;;;;;;12.95;55.04;91967.16;5110021;28;20080;-44
2022/04/07 10:27:02;;;;;;;14.57;8.60;;;;;;;12.83;57.51;91983.06;5109938;28;20031;-44
2022/04/07 10:29:28;;;;;;;12.80;9.05;;;;;;;12.74;57.90;91995.66;5110121;27;20034;-42
2022/04/07 10:32:12;;;;;;;15.57;7.68;;;;;;;12.64;60.14;91997.81;5109675;28;20026;-45
2022/04/07 10:34:52;;;;;;;9.02;7.18;;;;;;;12.63;60.13;92001.16;5109555;28;20527;-44
2022/04/07 10:37:28;;;;;;;12.63;7.43;;;;;;;12.52;61.37;92012.91;5109381;28;20067;-42
2022/04/07 10:39:54;;;;;;;13.48;7.78;;;;;;;12.65;60.95;92012.38;5097523;28;20046;-42
2022/04/07 10:42:58;;;;;;;11.20;8.25;;;;;;;12.25;60.53;91995.97;5089287;28;20522;-44
2022/04/07 10:45:50;;;;;;;17.65;9.60;;;;;;;12.47;59.87;92027.84;5088641;28;20032;-43
2022/04/07 10:48:20;;;;;;;13.52;8.70;;;;;;;12.44;60.88;92032.53;5088787;28;20107;-43
2022/04/07 10:51:05;;;;;;;9.85;7.88;;;;;;;12.36;59.90;92017.44;5088844;28;20520;-43
2022/04/07 10:53:36;;;;;;;10.45;7.13;;;;;;;12.42;60.93;92031.66;5089383;28;20101;-43
2022/04/07 10:56:12;;;;;;;14.80;8.30;;;;;;;12.47;60.01;92045.19;5089510;28;20039;-46
2022/04/07 10:58:45;;;;;;;13.00;6.43;;;;;;;12.49;58.85;92042.53;5076376;28;20020;-44
2022/04/07 11:01:29;;;;;;;11.63;6.30;;;;;;;12.37;59.62;92043.78;5070084;28;20024;-46
2022/04/07 11:04:20;;;;;;;9.80;6.28;;;;;;;12.39;60.59;92039.09;5087659;28;20036;-43
2022/04/07 11:07:04;;;;;;;14.77;6.55;;;;;;;12.36;60.55;92048.63;5074648;28;20111;-45
2022/04/07 11:09:47;;;;;;;9.63;6.00;;;;;;;12.43;61.73;92039.38;5068221;28;20028;-44
2022/04/07 11:12:19;;;;;;;9.85;5.90;;;;;;;12.45;62.42;92041.56;5068278;28;20524;-44
2022/04/07 11:14:46;;;;;;;13.77;6.72;;;;;;;12.53;61.35;92050.38;5068218;28;20241;-45
2022/04/07 11:17:45;;;;;;;8.80;5.90;;;;;;;12.51;59.50;92050.25;5068764;28;20046;-43
2022/04/07 11:20:16;;;;;;;11.10;5.65;;;;;;;12.12;58.90;92020.09;5068462;28;20044;-44
2022/04/07 11:22:57;;;;;;;10.68;6.88;;;;;;;12.11;60.87;92028.97;5083479;28;20021;-44
2022/04/07 11:25:36;;;;;;;12.90;7.60;;;;;;;12.10;61.75;92022.72;5073476;28;20187;-44
2022/04/07 11:28:05;;;;;;;;;;;;;;;11.91;62.17;92028.38;5079261;28;20120;-46
2022/04/07 11:30:44;;;;;;;13.52;6.75;;;;;;;11.95;62.60;92027.94;5079771;28;19920;-44
2022/04/07 11:33:18;;;;;;;33.00;18.48;;;;;;;11.90;62.60;92021.41;5076084;28;20044;-44
2022/04/07 11:36:06;;;;;;;49.33;23.80;;;;;;;11.91;63.55;92019.38;5074614;28;20028;-42
2022/04/07 11:38:50;;;;;;;23.75;11.35;;;;;;;11.69;62.87;92015.84;5060970;28;20040;-45
2022/04/07 11:41:17;;;;;;;37.33;18.80;;;;;;;11.63;64.11;92015.41;5070619;28;20040;-45